createdAt,value
2023-02-11T00:03:59.265Z,63.15
2023-02-11T00:09:01.697Z,63.20
2023-02-11T00:14:05.857Z,63.14
2023-02-11T00:19:07.522Z,63.16
2023-02-11T00:24:09.116Z,63.12
2023-02-11T00:29:10.722Z,63.01
2023-02-11T00:34:12.337Z,62.74
2023-02-11T00:39:13.928Z,62.74
2023-02-11T00:44:15.614Z,62.93
2023-02-11T00:49:17.472Z,62.86
2023-02-11T00:54:19.073Z,62.54
2023-02-11T00:59:20.655Z,62.72
2023-02-11T01:04:22.246Z,62.70
2023-02-11T01:09:23.849Z,62.63
2023-02-11T01:14:25.546Z,62.90
2023-02-11T01:19:27.142Z,62.53
2023-02-11T01:24:28.863Z,62.38
2023-02-11T01:29:30.648Z,62.38
2023-02-11T01:34:32.339Z,62.22
2023-02-11T01:39:34.629Z,62.08
2023-02-11T01:44:39.159Z,62.25
2023-02-11T01:49:46.582Z,62.17
2023-02-11T01:55:11.989Z,62.16
2023-02-11T02:00:31.535Z,62.37
2023-02-11T02:05:51.376Z,62.10
2023-02-11T02:10:56.578Z,62.38
2023-02-11T02:16:01.247Z,62.02
2023-02-11T02:21:21.434Z,62.05
2023-02-11T02:26:52.480Z,62.09
2023-02-11T02:32:31.271Z,62.00
2023-02-11T02:37:45.038Z,62.30
2023-02-11T02:42:48.055Z,62.04
2023-02-11T02:47:49.692Z,62.22
2023-02-11T02:53:00.035Z,62.49
2023-02-11T02:58:32.773Z,62.60
2023-02-11T03:03:49.551Z,62.18
2023-02-11T03:09:01.051Z,62.59
2023-02-11T03:14:04.633Z,62.56
2023-02-11T03:19:14.351Z,62.75
2023-02-11T03:24:30.985Z,63.11
2023-02-11T03:29:41.632Z,63.19
2023-02-11T03:35:10.778Z,63.06
2023-02-11T03:40:22.251Z,63.20
2023-02-11T03:45:25.689Z,63.59
2023-02-11T03:50:30.812Z,63.79
2023-02-11T03:55:39.266Z,63.99
2023-02-11T04:00:42.906Z,63.93
2023-02-11T04:05:44.647Z,63.87
2023-02-11T04:10:46.377Z,63.68
2023-02-11T04:15:49.131Z,63.86
2023-02-11T04:20:51.109Z,63.91
2023-02-11T04:25:52.921Z,63.91
2023-02-11T04:30:55.122Z,63.97
2023-02-11T04:35:59.585Z,64.13
2023-02-11T04:41:01.321Z,64.16
2023-02-11T04:46:02.963Z,64.01
2023-02-11T04:51:04.894Z,63.62
2023-02-11T04:56:07.057Z,63.72
2023-02-11T05:01:12.115Z,63.54
2023-02-11T05:06:13.875Z,63.54
2023-02-11T05:11:21.694Z,63.77
2023-02-11T05:16:23.593Z,63.90
2023-02-11T05:21:25.320Z,63.78
2023-02-11T05:26:27.011Z,64.24
2023-02-11T05:31:28.682Z,64.07
2023-02-11T05:36:33.344Z,64.17
2023-02-11T05:41:35.145Z,64.27
2023-02-11T05:46:36.779Z,64.37
2023-02-11T05:51:38.478Z,64.58
2023-02-11T05:56:40.055Z,64.90
2023-02-11T06:01:41.817Z,64.79
2023-02-11T06:06:43.479Z,65.25
2023-02-11T06:11:45.104Z,65.26
2023-02-11T06:16:46.730Z,65.15
2023-02-11T06:21:48.343Z,65.27
2023-02-11T06:26:49.948Z,65.16
2023-02-11T06:31:51.601Z,65.31
2023-02-11T06:36:53.246Z,65.46
2023-02-11T06:41:54.949Z,65.73
2023-02-11T06:46:56.618Z,65.56
2023-02-11T06:51:58.262Z,65.81
2023-02-11T06:56:59.887Z,65.59
2023-02-11T07:02:01.526Z,65.43
2023-02-11T07:07:03.211Z,65.23
2023-02-11T07:12:04.980Z,65.04
2023-02-11T07:17:06.609Z,64.92
2023-02-11T07:22:08.328Z,64.67
2023-02-11T07:27:09.939Z,64.41
2023-02-11T07:32:11.825Z,64.29
2023-02-11T07:37:13.454Z,64.16
2023-02-11T07:42:15.734Z,64.05
2023-02-11T07:47:17.358Z,63.73
2023-02-11T07:52:19.075Z,63.66
2023-02-11T07:57:20.678Z,63.39
2023-02-11T08:02:23.118Z,63.32
2023-02-11T08:07:24.825Z,62.61
2023-02-11T08:12:26.410Z,62.84
2023-02-11T08:17:28.148Z,62.65
2023-02-11T08:22:32.628Z,62.62
2023-02-11T08:27:34.545Z,62.13
2023-02-11T08:32:36.341Z,62.08
2023-02-11T08:37:38.413Z,61.91
2023-02-11T08:42:40.189Z,61.59
2023-02-11T08:47:41.853Z,61.30
2023-02-11T08:52:44.644Z,61.40
2023-02-11T08:57:46.311Z,61.55
2023-02-11T09:02:47.993Z,61.46
2023-02-11T09:07:49.651Z,61.64
2023-02-11T09:12:51.331Z,61.76
2023-02-11T09:17:53.152Z,61.76
2023-02-11T09:22:57.620Z,61.76
2023-02-11T09:27:59.223Z,61.88
2023-02-11T09:33:00.861Z,62.13
2023-02-11T09:38:02.474Z,62.27
2023-02-11T09:43:21.102Z,62.41
2023-02-11T09:48:23.564Z,62.33
2023-02-11T09:53:43.147Z,62.52
2023-02-11T09:58:45.669Z,62.70
2023-02-11T10:04:09.187Z,62.88
2023-02-11T10:09:17.167Z,63.16
2023-02-11T10:14:47.390Z,63.76
2023-02-11T10:20:01.084Z,63.83
2023-02-11T10:25:17.258Z,64.02
2023-02-11T10:30:32.512Z,64.18
2023-02-11T10:35:34.202Z,63.85
2023-02-11T10:40:35.852Z,63.77
2023-02-11T10:45:43.423Z,63.83
2023-02-11T10:50:45.060Z,63.42
2023-02-11T10:55:57.514Z,63.70
2023-02-11T11:01:00.476Z,63.77
2023-02-11T11:06:05.568Z,63.91
2023-02-11T11:11:13.115Z,63.49
2023-02-11T11:16:14.923Z,63.25
2023-02-11T11:21:22.675Z,63.13
2023-02-11T11:26:27.694Z,63.27
2023-02-11T11:31:37.048Z,62.97
2023-02-11T11:36:39.971Z,62.71
2023-02-11T11:41:51.622Z,62.57
2023-02-11T11:47:11.265Z,62.69
2023-02-11T11:52:37.786Z,63.18
2023-02-11T11:57:39.739Z,63.25
2023-02-11T12:02:50.923Z,62.57
2023-02-11T12:08:14.412Z,62.85
2023-02-11T12:13:42.399Z,62.63
2023-02-11T12:18:56.084Z,62.30
2023-02-11T12:24:40.565Z,62.30
2023-02-11T12:30:03.996Z,62.58
2023-02-11T12:35:40.108Z,62.24
2023-02-11T12:41:39.685Z,62.51
2023-02-11T12:46:52.211Z,62.21
2023-02-11T12:52:44.292Z,62.23
2023-02-11T12:57:48.893Z,62.45
2023-02-11T13:03:01.512Z,62.54
2023-02-11T13:08:11.099Z,62.57
2023-02-11T13:13:33.160Z,62.33
2023-02-11T13:18:40.607Z,62.39
2023-02-11T13:23:45.160Z,62.55
2023-02-11T13:29:09.961Z,62.83
2023-02-11T13:34:41.000Z,62.61
2023-02-11T13:39:42.710Z,62.72
2023-02-11T13:44:44.504Z,63.22
2023-02-11T13:49:53.454Z,63.29
2023-02-11T13:54:59.453Z,63.05
2023-02-11T14:00:26.050Z,62.91
2023-02-11T14:05:50.752Z,63.00
2023-02-11T14:10:54.141Z,63.38
2023-02-11T14:16:11.153Z,63.53
2023-02-11T14:21:28.924Z,63.33
2023-02-11T14:26:47.320Z,63.38
2023-02-11T14:32:13.113Z,63.63
2023-02-11T14:37:19.464Z,63.80
2023-02-11T14:42:26.888Z,63.67
2023-02-11T14:47:41.944Z,64.13
2023-02-11T14:52:44.567Z,64.50
2023-02-11T14:57:49.662Z,64.30
2023-02-11T15:02:51.796Z,64.10
2023-02-11T15:08:00.788Z,64.31
2023-02-11T15:13:05.906Z,64.26
2023-02-11T15:18:09.672Z,64.52
2023-02-11T15:23:21.749Z,64.33
2023-02-11T15:28:26.806Z,64.57
2023-02-11T15:33:30.700Z,64.59
2023-02-11T15:38:32.613Z,64.71
2023-02-11T15:43:46.352Z,64.48
2023-02-11T15:48:51.390Z,64.61
2023-02-11T15:53:57.099Z,64.56
2023-02-11T15:59:09.276Z,64.71
2023-02-11T16:04:27.231Z,64.74
2023-02-11T16:09:35.303Z,64.34
2023-02-11T16:14:39.686Z,64.37
2023-02-11T16:19:47.407Z,64.51
2023-02-11T16:24:51.232Z,64.49
2023-02-11T16:29:53.207Z,64.60
2023-02-11T16:34:57.986Z,64.60
2023-02-11T16:39:59.668Z,64.99
2023-02-11T16:45:01.348Z,64.78
2023-02-11T16:50:04.488Z,64.80
2023-02-11T16:55:06.721Z,64.99
2023-02-11T17:00:08.988Z,65.20
2023-02-11T17:05:26.062Z,65.45
2023-02-11T17:10:27.739Z,65.24
2023-02-11T17:15:29.401Z,64.97
2023-02-11T17:20:31.079Z,64.82
2023-02-11T17:25:32.799Z,64.85
2023-02-11T17:30:34.598Z,64.67
2023-02-11T17:35:39.397Z,64.68
2023-02-11T17:40:41.015Z,65.08
2023-02-11T17:45:42.820Z,65.26
2023-02-11T17:50:44.606Z,65.33
2023-02-11T17:55:46.190Z,65.35
2023-02-11T18:00:47.980Z,65.19
2023-02-11T18:05:50.166Z,65.20
2023-02-11T18:10:52.007Z,65.72
2023-02-11T18:15:53.855Z,65.79
2023-02-11T18:20:57.318Z,65.90
2023-02-11T18:25:58.953Z,66.10
2023-02-11T18:31:01.804Z,66.02
2023-02-11T18:36:12.513Z,66.16
2023-02-11T18:41:14.627Z,66.28
2023-02-11T18:46:16.781Z,66.61
2023-02-11T18:51:18.801Z,66.65
2023-02-11T18:56:23.469Z,66.69
2023-02-11T19:01:27.630Z,66.39
2023-02-11T19:06:32.482Z,66.56
2023-02-11T19:11:54.789Z,66.82
2023-02-11T19:16:58.573Z,66.53
2023-02-11T19:22:03.227Z,66.52
2023-02-11T19:27:05.303Z,66.25
2023-02-11T19:32:07.424Z,66.28
2023-02-11T19:37:12.711Z,66.48
2023-02-11T19:42:15.237Z,66.42
2023-02-11T19:47:16.953Z,66.59
2023-02-11T19:52:18.600Z,66.73
2023-02-11T19:57:20.217Z,66.44
2023-02-11T20:02:22.000Z,66.29
2023-02-11T20:07:23.742Z,66.31
2023-02-11T20:12:25.472Z,66.38
2023-02-11T20:17:27.238Z,66.39
2023-02-11T20:22:28.921Z,66.37
2023-02-11T20:27:32.338Z,66.27
2023-02-11T20:32:38.142Z,66.34
2023-02-11T20:37:42.231Z,66.25
2023-02-11T20:42:45.433Z,66.36
2023-02-11T20:47:47.493Z,66.29
2023-02-11T20:52:49.142Z,66.09
2023-02-11T20:57:50.964Z,65.84
2023-02-11T21:02:53.482Z,65.98
2023-02-11T21:07:55.193Z,66.12
2023-02-11T21:12:57.125Z,66.34
2023-02-11T21:17:58.966Z,66.64
2023-02-11T21:23:00.562Z,66.72
2023-02-11T21:28:02.184Z,66.93
2023-02-11T21:33:03.980Z,66.98
2023-02-11T21:38:05.699Z,67.01
2023-02-11T21:43:07.505Z,67.14
2023-02-11T21:48:09.105Z,67.49
2023-02-11T21:53:12.016Z,67.41
2023-02-11T21:58:14.035Z,67.39
2023-02-11T22:03:15.679Z,67.25
2023-02-11T22:08:19.850Z,66.95
2023-02-11T22:13:22.017Z,66.50
2023-02-11T22:18:23.720Z,66.02
2023-02-11T22:23:25.327Z,65.83
2023-02-11T22:28:27.113Z,65.75
2023-02-11T22:33:28.925Z,65.50
2023-02-11T22:38:31.314Z,65.47
2023-02-11T22:43:32.928Z,65.32
2023-02-11T22:48:36.031Z,65.24
2023-02-11T22:53:37.800Z,65.27
2023-02-11T22:58:39.570Z,65.01
2023-02-11T23:03:41.330Z,65.08
2023-02-11T23:08:43.394Z,65.07
2023-02-11T23:13:46.408Z,65.21
2023-02-11T23:18:49.325Z,65.27
2023-02-11T23:23:58.610Z,65.37
2023-02-11T23:29:00.265Z,65.23
2023-02-11T23:34:01.855Z,65.19
2023-02-11T23:39:04.452Z,65.12
2023-02-11T23:44:06.074Z,64.97
2023-02-11T23:49:07.700Z,65.05
2023-02-11T23:54:13.284Z,65.03
2023-02-11T23:59:14.974Z,65.06
